Time;durP1;ratioP1;P1;durP2;ratioP2;P2;SDS_P1;SDS_P2;PMS_P1;PMS_P2;Temp;Humidity;BMP_temperature;BMP_pressure;BME280_temperature;BME280_humidity;BME280_pressure;Samples;Min_cycle;Max_cycle;Signal;HPM_P1;HPM_P2
2022/07/13 00:00:05;;;;;;;5.80;1.30;;;;;;;;;;5032664;28;20216;-86
2022/07/13 00:03:09;;;;;;;3.10;1.00;;;;;;;;;;5032774;28;20180;-86
2022/07/13 00:06:13;;;;;;;1.63;0.90;;;;;;;;;;5024040;28;20192;-87
2022/07/13 00:09:17;;;;;;;1.57;0.87;;;;;;;;;;5037109;28;20220;-86
2022/07/13 00:12:21;;;;;;;1.20;1.00;;;;;;;;;;5043669;28;20207;-88
2022/07/13 00:15:25;;;;;;;1.97;0.97;;;;;;;;;;5032980;28;20195;-86
2022/07/13 00:18:29;;;;;;;1.10;0.80;;;;;;;;;;5032070;28;20208;-86
2022/07/13 00:21:34;;;;;;;0.80;0.80;;;;;;;;;;5023868;28;20192;-86
2022/07/13 00:24:38;;;;;;;2.20;1.00;;;;;;;;;;5026885;28;20192;-86
2022/07/13 00:27:42;;;;;;;3.60;1.27;;;;;;;;;;5026496;28;20187;-86
2022/07/13 00:30:46;;;;;;;1.00;0.90;;;;;;;;;;5032239;28;20223;-86
2022/07/13 00:33:51;;;;;;;1.80;1.07;;;;;;;;;;5031644;28;20204;-85
2022/07/13 00:36:55;;;;;;;1.10;1.00;;;;;;;;;;5012213;28;20201;-86
2022/07/13 00:40:00;;;;;;;1.17;0.90;;;;;;;;;;5023714;28;20217;-86
2022/07/13 00:43:03;;;;;;;1.90;1.20;;;;;;;;;;5023933;28;20176;-86
2022/07/13 00:46:09;;;;;;;1.27;1.00;;;;;;;;;;5001623;28;20184;-86
2022/07/13 00:49:13;;;;;;;1.20;1.10;;;;;;;;;;5031337;28;20572;-86
2022/07/13 00:52:18;;;;;;;1.53;0.97;;;;;;;;;;5031803;28;20552;-86
2022/07/13 00:55:22;;;;;;;1.17;1.07;;;;;;;;;;5032235;28;20623;-86
2022/07/13 00:58:26;;;;;;;1.13;1.03;;;;;;;;;;5042542;28;20192;-86
2022/07/13 01:01:31;;;;;;;1.87;1.30;;;;;;;;;;5042786;28;20188;-86
2022/07/13 01:04:36;;;;;;;1.20;1.10;;;;;;;;;;5031823;28;20180;-86
2022/07/13 01:07:41;;;;;;;2.03;1.20;;;;;;;;;;5042361;28;20184;-86
2022/07/13 01:10:48;;;;;;;3.23;1.00;;;;;;;;;;5031160;28;20211;-86
2022/07/13 01:13:52;;;;;;;1.90;1.00;;;;;;;;;;5022850;28;20221;-86
2022/07/13 01:16:56;;;;;;;1.93;1.00;;;;;;;;;;5042477;28;20200;-86
2022/07/13 01:20:01;;;;;;;3.27;1.13;;;;;;;;;;5011661;28;20220;-87
2022/07/13 01:23:17;;;;;;;0.90;0.90;;;;;;;;;;5021741;28;20191;-86
2022/07/13 01:26:21;;;;;;;1.63;0.93;;;;;;;;;;5031455;28;20185;-86
2022/07/13 01:29:25;;;;;;;1.40;1.00;;;;;;;;;;5039375;28;20215;-86
2022/07/13 01:32:29;;;;;;;1.30;0.97;;;;;;;;;;5043426;28;20559;-86
2022/07/13 01:35:34;;;;;;;2.63;1.20;;;;;;;;;;5030992;28;20180;-86
2022/07/13 01:38:38;;;;;;;1.20;1.10;;;;;;;;;;5016742;28;20188;-86
2022/07/13 01:41:42;;;;;;;2.80;0.97;;;;;;;;;;5029706;28;20188;-86
2022/07/13 01:44:48;;;;;;;1.30;1.10;;;;;;;;;;5030607;28;20643;-87
2022/07/13 01:47:54;;;;;;;3.23;1.10;;;;;;;;;;5030223;28;20188;-86
2022/07/13 01:50:58;;;;;;;1.80;1.00;;;;;;;;;;5088509;23;20568;-87
2022/07/13 01:54:02;;;;;;;1.63;1.00;;;;;;;;;;5079130;28;20206;-87
2022/07/13 01:57:06;;;;;;;0.97;0.97;;;;;;;;;;5079780;28;20178;-87
2022/07/13 02:00:13;;;;;;;1.23;1.03;;;;;;;;;;5101959;28;20222;-87
2022/07/13 02:03:19;;;;;;;1.80;0.93;;;;;;;;;;5083284;28;20179;-87
2022/07/13 02:06:23;;;;;;;1.40;1.10;;;;;;;;;;5069970;28;20191;-87
2022/07/13 02:09:27;;;;;;;1.23;1.10;;;;;;;;;;5088285;28;20190;-86
2022/07/13 02:12:32;;;;;;;1.10;1.00;;;;;;;;;;5090001;28;20206;-87
2022/07/13 02:15:37;;;;;;;1.50;1.10;;;;;;;;;;5102248;28;20182;-87
2022/07/13 02:18:42;;;;;;;1.60;1.00;;;;;;;;;;5076008;28;20182;-87
2022/07/13 02:21:46;;;;;;;1.70;1.10;;;;;;;;;;5089982;28;20206;-87
2022/07/13 02:24:51;;;;;;;1.27;1.13;;;;;;;;;;5078453;28;20186;-87
2022/07/13 02:27:55;;;;;;;2.00;1.30;;;;;;;;;;5097324;28;20198;-86
2022/07/13 02:31:01;;;;;;;2.03;1.10;;;;;;;;;;5079621;28;20214;-87
2022/07/13 02:34:05;;;;;;;2.97;1.20;;;;;;;;;;5090393;28;20174;-87
2022/07/13 02:37:11;;;;;;;3.23;1.17;;;;;;;;;;5069589;28;20190;-87
2022/07/13 02:40:15;;;;;;;1.40;1.30;;;;;;;;;;5081513;28;20222;-87
2022/07/13 02:43:19;;;;;;;1.20;1.10;;;;;;;;;;5069832;28;20218;-87
2022/07/13 02:46:24;;;;;;;1.23;1.13;;;;;;;;;;5060144;28;20191;-87
2022/07/13 02:49:28;;;;;;;3.43;1.13;;;;;;;;;;5058330;28;20187;-86
2022/07/13 02:52:33;;;;;;;1.77;1.30;;;;;;;;;;5089240;28;20189;-87
2022/07/13 02:55:36;;;;;;;1.50;1.20;;;;;;;;;;5082519;28;20182;-87
2022/07/13 02:58:40;;;;;;;2.00;1.33;;;;;;;;;;5082846;28;20178;-87
2022/07/13 03:01:45;;;;;;;4.20;1.27;;;;;;;;;;5093980;28;20691;-87
2022/07/13 03:04:49;;;;;;;1.63;1.20;;;;;;;;;;5082185;28;20178;-85
2022/07/13 03:07:53;;;;;;;1.30;1.10;;;;;;;;;;5062544;28;20202;-87
2022/07/13 03:10:57;;;;;;;1.20;1.10;;;;;;;;;;5074257;28;20214;-87
2022/07/13 03:14:02;;;;;;;2.27;1.00;;;;;;;;;;5070356;28;20190;-87
2022/07/13 03:17:07;;;;;;;1.30;1.13;;;;;;;;;;5082240;28;20186;-87
2022/07/13 03:20:11;;;;;;;2.60;1.20;;;;;;;;;;5076634;28;20227;-86
2022/07/13 03:23:16;;;;;;;1.97;1.30;;;;;;;;;;5082583;28;20206;-87
2022/07/13 03:26:20;;;;;;;1.77;1.47;;;;;;;;;;5084859;28;20195;-87
2022/07/13 03:29:24;;;;;;;1.23;1.10;;;;;;;;;;5084943;28;20183;-87
2022/07/13 03:32:30;;;;;;;4.73;1.40;;;;;;;;;;5080263;28;20198;-87
2022/07/13 03:35:34;;;;;;;1.27;1.17;;;;;;;;;;5081831;28;20189;-87
2022/07/13 03:38:38;;;;;;;2.97;1.40;;;;;;;;;;5082267;28;20182;-87
2022/07/13 03:41:42;;;;;;;5.00;1.40;;;;;;;;;;5092691;28;20210;-86
2022/07/13 03:44:47;;;;;;;2.90;1.50;;;;;;;;;;5073357;28;20202;-87
2022/07/13 03:47:51;;;;;;;1.47;1.10;;;;;;;;;;5073164;28;20513;-87
2022/07/13 03:50:56;;;;;;;1.60;1.20;;;;;;;;;;5083929;28;20568;-87
2022/07/13 03:54:00;;;;;;;1.27;1.17;;;;;;;;;;5081849;28;20175;-87
2022/07/13 03:57:05;;;;;;;2.10;1.20;;;;;;;;;;5077769;28;20182;-87
2022/07/13 04:00:11;;;;;;;5.13;1.23;;;;;;;;;;5081200;28;20217;-86
2022/07/13 04:03:25;;;;;;;2.00;1.17;;;;;;;;;;5094281;28;20210;-87
2022/07/13 04:06:30;;;;;;;1.20;0.90;;;;;;;;;;5093034;28;20179;-87
2022/07/13 04:09:34;;;;;;;1.93;1.30;;;;;;;;;;5082007;28;20182;-87
2022/07/13 04:12:41;;;;;;;1.30;1.20;;;;;;;;;;5092607;28;20170;-87
2022/07/13 04:15:44;;;;;;;2.17;1.20;;;;;;;;;;5092636;28;20513;-87
2022/07/13 04:18:48;;;;;;;3.37;1.30;;;;;;;;;;5074477;28;20653;-87
2022/07/13 04:21:53;;;;;;;2.57;1.23;;;;;;;;;;5080946;28;20186;-88
2022/07/13 04:24:57;;;;;;;3.33;1.50;;;;;;;;;;5093280;28;20558;-87
2022/07/13 04:28:02;;;;;;;3.67;1.30;;;;;;;;;;5080856;28;20194;-87
2022/07/13 04:31:06;;;;;;;1.30;1.20;;;;;;;;;;5060608;28;20226;-87
2022/07/13 04:34:13;;;;;;;1.30;1.20;;;;;;;;;;5067744;28;20186;-87
2022/07/13 04:37:17;;;;;;;1.60;1.50;;;;;;;;;;5066360;28;20186;-88
2022/07/13 04:40:22;;;;;;;4.20;1.10;;;;;;;;;;5091735;28;20696;-87
2022/07/13 04:43:26;;;;;;;1.60;1.50;;;;;;;;;;5092018;28;20206;-87
2022/07/13 04:46:30;;;;;;;1.53;1.43;;;;;;;;;;5092384;28;20178;-87
2022/07/13 04:49:37;;;;;;;2.50;1.50;;;;;;;;;;5079979;28;20190;-87
2022/07/13 04:52:42;;;;;;;2.27;1.10;;;;;;;;;;5080661;28;20178;-87
2022/07/13 04:55:46;;;;;;;2.17;1.00;;;;;;;;;;5091860;28;20174;-87
2022/07/13 04:58:50;;;;;;;3.43;1.17;;;;;;;;;;5091454;28;20185;-87
2022/07/13 05:01:54;;;;;;;1.93;1.20;;;;;;;;;;5074510;28;20190;-84
2022/07/13 05:05:00;;;;;;;3.30;1.53;;;;;;;;;;5092653;28;20205;-84
2022/07/13 05:08:05;;;;;;;3.40;1.27;;;;;;;;;;5083452;28;20187;-84
2022/07/13 05:11:10;;;;;;;1.47;1.37;;;;;;;;;;5061185;28;20214;-85
2022/07/13 05:14:15;;;;;;;2.17;1.70;;;;;;;;;;5085517;28;20175;-84
2022/07/13 05:17:19;;;;;;;2.13;1.33;;;;;;;;;;5092557;28;20612;-84
2022/07/13 05:20:24;;;;;;;5.53;2.10;;;;;;;;;;5092951;28;20218;-84
2022/07/13 05:23:34;;;;;;;4.33;1.70;;;;;;;;;;5080908;28;20213;-84
2022/07/13 05:26:39;;;;;;;2.67;1.60;;;;;;;;;;5091656;28;20182;-85
2022/07/13 05:29:43;;;;;;;4.07;1.40;;;;;;;;;;5091855;28;20213;-90
2022/07/13 05:32:47;;;;;;;4.33;1.77;;;;;;;;;;5081165;28;20620;-84
2022/07/13 05:35:51;;;;;;;3.43;1.70;;;;;;;;;;5079980;28;20170;-85
2022/07/13 05:38:55;;;;;;;4.70;1.40;;;;;;;;;;5079778;28;20178;-84
2022/07/13 05:41:59;;;;;;;2.33;1.40;;;;;;;;;;5091274;28;20636;-85
2022/07/13 05:45:04;;;;;;;2.67;1.40;;;;;;;;;;5089712;28;20210;-85
2022/07/13 05:48:09;;;;;;;1.87;1.53;;;;;;;;;;5083301;28;20186;-85
2022/07/13 05:51:13;;;;;;;3.30;1.53;;;;;;;;;;5078303;28;20703;-84
2022/07/13 05:54:18;;;;;;;1.73;1.40;;;;;;;;;;5090396;28;20194;-85
2022/07/13 05:57:22;;;;;;;7.83;1.60;;;;;;;;;;5074994;28;20194;-85
2022/07/13 06:00:27;;;;;;;1.47;1.20;;;;;;;;;;5079963;28;20214;-84
2022/07/13 06:03:31;;;;;;;2.33;1.10;;;;;;;;;;5090601;28;20182;-84
2022/07/13 06:06:35;;;;;;;1.47;1.20;;;;;;;;;;5090598;28;20656;-85
2022/07/13 06:09:39;;;;;;;4.03;1.13;;;;;;;;;;5090691;28;20632;-84
2022/07/13 06:12:43;;;;;;;3.63;1.23;;;;;;;;;;5079245;28;20170;-84
2022/07/13 06:15:47;;;;;;;3.93;1.20;;;;;;;;;;5090109;28;20193;-85
2022/07/13 06:18:52;;;;;;;3.10;1.10;;;;;;;;;;5090465;28;20194;-85
2022/07/13 06:21:56;;;;;;;1.30;1.10;;;;;;;;;;5090141;28;20186;-85
2022/07/13 06:25:03;;;;;;;3.87;1.30;;;;;;;;;;5069755;28;20202;-84
2022/07/13 06:28:07;;;;;;;3.83;1.00;;;;;;;;;;5070218;28;20175;-84
2022/07/13 06:31:11;;;;;;;3.07;0.93;;;;;;;;;;5081734;28;20214;-84
2022/07/13 06:34:15;;;;;;;4.57;1.20;;;;;;;;;;5063840;28;20182;-84
2022/07/13 06:37:19;;;;;;;0.93;0.83;;;;;;;;;;5070031;28;20514;-85
2022/07/13 06:40:26;;;;;;;1.93;1.10;;;;;;;;;;5068149;28;20225;-85
2022/07/13 06:44:08;;;;;;;1.40;1.10;;;;;;;;;;5081550;28;20183;-85
2022/07/13 06:47:16;;;;;;;4.43;1.20;;;;;;;;;;5081550;28;20179;-85
2022/07/13 06:50:21;;;;;;;1.97;1.20;;;;;;;;;;5084538;28;20222;-85
2022/07/13 06:53:25;;;;;;;1.77;1.10;;;;;;;;;;5078333;28;20174;-86
2022/07/13 07:01:35;;;;;;;4.43;1.10;;;;;;;;;;5087759;22;20227;-77
2022/07/13 07:04:40;;;;;;;1.23;0.90;;;;;;;;;;5076724;28;20211;-77
2022/07/13 07:07:44;;;;;;;4.83;1.30;;;;;;;;;;5076577;28;20635;-77
2022/07/13 07:10:48;;;;;;;1.50;0.90;;;;;;;;;;5076699;28;20222;-77
2022/07/13 07:13:52;;;;;;;2.20;1.00;;;;;;;;;;5076005;28;20531;-77
2022/07/13 07:16:58;;;;;;;2.30;1.10;;;;;;;;;;5044334;28;20631;-77
2022/07/13 07:20:06;;;;;;;1.17;0.83;;;;;;;;;;5068956;28;20187;-77
2022/07/13 07:23:10;;;;;;;1.93;1.20;;;;;;;;;;5076250;28;20176;-77
2022/07/13 07:26:15;;;;;;;7.77;1.10;;;;;;;;;;5062457;28;20184;-77
2022/07/13 07:29:19;;;;;;;1.70;1.03;;;;;;;;;;5060533;28;20638;-77
2022/07/13 07:32:23;;;;;;;2.70;0.83;;;;;;;;;;5064882;28;20219;-78
2022/07/13 07:35:28;;;;;;;1.90;0.70;;;;;;;;;;5075780;28;20184;-79
2022/07/13 07:38:32;;;;;;;3.43;0.93;;;;;;;;;;5069997;28;20659;-78
2022/07/13 07:41:36;;;;;;;3.93;0.80;;;;;;;;;;5080903;28;20223;-77
2022/07/13 07:44:40;;;;;;;2.23;0.90;;;;;;;;;;5067897;28;20217;-77
2022/07/13 07:47:45;;;;;;;2.20;0.70;;;;;;;;;;5068578;28;20178;-77
2022/07/13 07:50:49;;;;;;;1.88;0.80;;;;;;;;;;5069707;22;20227;-77
2022/07/13 07:53:53;;;;;;;1.15;0.80;;;;;;;;;;5052195;28;20180;-77
2022/07/13 07:56:57;;;;;;;7.10;0.80;;;;;;;;;;5064137;28;20178;-77
2022/07/13 08:00:02;;;;;;;1.60;0.90;;;;;;;;;;5048577;28;20639;-76
2022/07/13 08:03:16;;;;;;;2.03;1.10;;;;;;;;;;5057267;28;20191;-77
2022/07/13 08:06:20;;;;;;;3.80;1.05;;;;;;;;;;5060174;28;20198;-77
2022/07/13 08:09:24;;;;;;;2.03;0.60;;;;;;;;;;5052182;28;20196;-77
2022/07/13 08:12:28;;;;;;;2.67;0.80;;;;;;;;;;5075503;28;20564;-77
2022/07/13 08:15:33;;;;;;;2.38;0.73;;;;;;;;;;5032798;28;20531;-77
2022/07/13 08:18:38;;;;;;;2.17;0.70;;;;;;;;;;5055395;28;20181;-77
2022/07/13 08:21:42;;;;;;;2.60;0.73;;;;;;;;;;5033233;28;20706;-77
2022/07/13 08:24:46;;;;;;;3.60;0.68;;;;;;;;;;5050439;28;20207;-77
2022/07/13 08:27:50;;;;;;;1.23;0.80;;;;;;;;;;5053332;28;20187;-77
2022/07/13 08:30:54;;;;;;;1.25;0.60;;;;;;;;;;5052348;28;20219;-77
2022/07/13 08:41:05;;;;;;;1.05;0.77;;;;;;;;;;5067337;28;20553;-77
2022/07/13 08:44:09;;;;;;;8.35;6.32;;;;;;;;;;5067592;28;20179;-78
2022/07/13 08:47:14;;;;;;;1.30;0.80;;;;;;;;;;5066608;28;20180;-77
2022/07/13 08:50:21;;;;;;;3.08;0.70;;;;;;;;;;5080549;28;20208;-77
2022/07/13 08:53:26;;;;;;;0.80;0.70;;;;;;;;;;5067305;28;20180;-77
2022/07/13 08:56:30;;;;;;;1.98;0.60;;;;;;;;;;5068420;28;20191;-78
2022/07/13 08:59:34;;;;;;;1.55;0.60;;;;;;;;;;5082233;28;20180;-78
2022/07/13 09:02:38;;;;;;;0.90;0.50;;;;;;;;;;5081000;28;20558;-78
2022/07/13 09:05:43;;;;;;;2.05;0.57;;;;;;;;;;5080014;28;20196;-78
2022/07/13 09:08:47;;;;;;;0.60;0.50;;;;;;;;;;5068340;28;20184;-77
2022/07/13 09:11:51;;;;;;;1.23;0.60;;;;;;;;;;5044160;28;20207;-77
2022/07/13 09:15:06;;;;;;;0.70;0.60;;;;;;;;;;5068814;28;20207;-78
2022/07/13 09:18:18;;;;;;;1.88;0.65;;;;;;;;;;5069784;28;20184;-78
2022/07/13 09:21:23;;;;;;;0.77;0.50;;;;;;;;;;5069820;28;20215;-78
2022/07/13 09:24:44;;;;;;;0.98;0.50;;;;;;;;;;5058644;28;20176;-78
2022/07/13 09:27:49;;;;;;;1.00;0.77;;;;;;;;;;5083815;28;20180;-78
2022/07/13 09:30:59;;;;;;;1.27;0.50;;;;;;;;;;5082095;28;20215;-78
2022/07/13 09:34:03;;;;;;;1.00;0.68;;;;;;;;;;5068739;28;20176;-78
2022/07/13 09:37:09;;;;;;;3.88;0.63;;;;;;;;;;5056743;28;20168;-78
2022/07/13 09:40:17;;;;;;;1.15;0.70;;;;;;;;;;5067764;28;20179;-78
2022/07/13 09:46:58;;;;;;;0.90;0.60;;;;;;;;;;5068612;28;20176;-78
2022/07/13 09:50:02;;;;;;;2.50;0.93;;;;;;;;;;5069358;28;20176;-78
2022/07/13 09:53:25;;;;;;;1.33;0.60;;;;;;;;;;5081826;28;20184;-78
2022/07/13 09:56:31;;;;;;;1.77;0.70;;;;;;;;;;5080990;28;20204;-78
2022/07/13 09:59:36;;;;;;;0.60;0.60;;;;;;;;;;5060139;28;20167;-78
2022/07/13 10:02:41;;;;;;;2.00;1.00;;;;;;;;;;5070203;28;20215;-78
2022/07/13 10:05:46;;;;;;;3.22;0.80;;;;;;;;;;5068898;28;20191;-78
2022/07/13 10:08:53;;;;;;;0.70;0.68;;;;;;;;;;5071670;28;20184;-78
2022/07/13 10:11:58;;;;;;;1.20;0.60;;;;;;;;;;5058742;28;20211;-78
2022/07/13 10:15:04;;;;;;;0.75;0.63;;;;;;;;;;5069522;28;20200;-78
2022/07/13 10:18:11;;;;;;;0.60;0.60;;;;;;;;;;5069300;28;20176;-78
2022/07/13 10:21:20;;;;;;;4.28;0.98;;;;;;;;;;5078603;28;20215;-77
2022/07/13 10:24:25;;;;;;;0.93;0.70;;;;;;;;;;5067433;28;20192;-77
2022/07/13 10:27:30;;;;;;;15.75;2.22;;;;;;;;;;5068369;28;20196;-78
2022/07/13 10:30:35;;;;;;;2.65;0.77;;;;;;;;;;5068429;28;20203;-77
2022/07/13 10:33:43;;;;;;;1.83;0.70;;;;;;;;;;5069051;28;20176;-78
2022/07/13 10:36:56;;;;;;;1.52;0.63;;;;;;;;;;5045949;28;20219;-78
2022/07/13 10:40:11;;;;;;;1.05;0.65;;;;;;;;;;5068964;28;20555;-78
2022/07/13 10:43:16;;;;;;;3.33;0.70;;;;;;;;;;5081490;28;20191;-78
2022/07/13 10:46:49;;;;;;;1.45;0.57;;;;;;;;;;5069832;28;20179;-78
2022/07/13 10:49:53;;;;;;;0.90;0.75;;;;;;;;;;5068559;28;20200;-78
2022/07/13 10:52:57;;;;;;;1.05;0.50;;;;;;;;;;5082383;28;20180;-78
2022/07/13 10:56:01;;;;;;;1.08;0.70;;;;;;;;;;5070215;28;20204;-78
2022/07/13 10:59:07;;;;;;;1.50;0.75;;;;;;;;;;5057929;28;20184;-78
2022/07/13 11:02:41;;;;;;;1.85;0.50;;;;;;;;;;5082408;28;20211;-78
2022/07/13 11:06:11;;;;;;;0.93;0.68;;;;;;;;;;5068892;28;20175;-78
2022/07/13 11:09:18;;;;;;;1.00;0.68;;;;;;;;;;5082308;28;20171;-77
2022/07/13 11:12:22;;;;;;;4.28;0.80;;;;;;;;;;5070652;28;20215;-78
2022/07/13 11:15:56;;;;;;;1.48;0.60;;;;;;;;;;5059422;28;20549;-77
2022/07/13 11:19:00;;;;;;;1.27;0.60;;;;;;;;;;5072965;28;20523;-78
2022/07/13 11:22:10;;;;;;;1.48;0.70;;;;;;;;;;5072701;28;20223;-78
2022/07/13 11:25:14;;;;;;;1.73;0.60;;;;;;;;;;5085671;28;20172;-78
2022/07/13 11:28:36;;;;;;;2.05;0.70;;;;;;;;;;5072091;28;20179;-78
2022/07/13 11:31:40;;;;;;;2.72;0.70;;;;;;;;;;5073309;28;20220;-78
2022/07/13 11:34:46;;;;;;;1.95;0.70;;;;;;;;;;5062775;28;20172;-78
2022/07/13 11:37:52;;;;;;;3.15;0.80;;;;;;;;;;5073934;28;20184;-78
2022/07/13 11:40:56;;;;;;;0.50;0.50;;;;;;;;;;5071102;28;20219;-78
2022/07/13 11:44:00;;;;;;;0.70;0.70;;;;;;;;;;5072548;28;20176;-78
2022/07/13 11:47:08;;;;;;;3.22;0.60;;;;;;;;;;5065390;28;20180;-76
2022/07/13 11:50:12;;;;;;;0.98;0.65;;;;;;;;;;5076267;28;20200;-76
2022/07/13 11:53:20;;;;;;;2.55;0.70;;;;;;;;;;5083775;28;20179;-78
2022/07/13 11:56:24;;;;;;;0.93;0.47;;;;;;;;;;5060045;28;20204;-78
2022/07/13 11:59:42;;;;;;;2.33;0.60;;;;;;;;;;5052889;28;20180;-77
2022/07/13 12:02:51;;;;;;;1.63;0.60;;;;;;;;;;5065120;28;20184;-77
2022/07/13 12:06:03;;;;;;;0.90;0.70;;;;;;;;;;5076410;28;20643;-77
2022/07/13 12:09:17;;;;;;;3.38;0.65;;;;;;;;;;5076237;28;20184;-77
2022/07/13 12:12:29;;;;;;;0.73;0.52;;;;;;;;;;5063952;28;20220;-77
2022/07/13 12:15:33;;;;;;;1.73;0.70;;;;;;;;;;5076348;28;20208;-78
2022/07/13 12:19:03;;;;;;;3.15;0.55;;;;;;;;;;5076295;28;20658;-77
2022/07/13 12:22:07;;;;;;;4.03;0.70;;;;;;;;;;5051341;28;20215;-77
2022/07/13 12:25:28;;;;;;;2.55;0.60;;;;;;;;;;5076397;28;20195;-78
2022/07/13 12:28:37;;;;;;;2.05;0.60;;;;;;;;;;5064177;28;20184;-77
2022/07/13 12:31:49;;;;;;;3.58;0.70;;;;;;;;;;5041283;28;20211;-77
2022/07/13 12:34:53;;;;;;;0.57;0.50;;;;;;;;;;5052656;28;20172;-77
2022/07/13 12:37:58;;;;;;;1.77;0.60;;;;;;;;;;5053382;28;20172;-77
2022/07/13 12:41:03;;;;;;;2.88;1.05;;;;;;;;;;5040821;28;20219;-77
2022/07/13 12:44:10;;;;;;;1.80;0.60;;;;;;;;;;5063175;28;20530;-77
2022/07/13 12:47:14;;;;;;;1.35;0.55;;;;;;;;;;5075977;28;20180;-78
2022/07/13 12:50:29;;;;;;;2.47;0.93;;;;;;;;;;5052239;28;20203;-78
2022/07/13 12:53:46;;;;;;;1.38;0.70;;;;;;;;;;5052791;28;20176;-77
2022/07/13 12:56:51;;;;;;;1.35;0.57;;;;;;;;;;5064553;28;20216;-77
2022/07/13 12:59:58;;;;;;;1.92;0.60;;;;;;;;;;5052576;28;20176;-77
2022/07/13 13:03:02;;;;;;;1.05;0.63;;;;;;;;;;5075735;28;20180;-77
2022/07/13 13:06:06;;;;;;;0.73;0.50;;;;;;;;;;5051150;28;20172;-77
2022/07/13 13:09:15;;;;;;;0.98;0.50;;;;;;;;;;5062858;28;20191;-77
2022/07/13 13:12:19;;;;;;;0.85;0.60;;;;;;;;;;5074986;28;20574;-77
2022/07/13 13:15:23;;;;;;;2.47;0.60;;;;;;;;;;5062956;28;20180;-78
2022/07/13 13:18:28;;;;;;;0.55;0.52;;;;;;;;;;5063021;28;20180;-77
2022/07/13 13:21:33;;;;;;;1.50;0.40;;;;;;;;;;5037511;28;20219;-77
2022/07/13 13:24:38;;;;;;;3.00;0.60;;;;;;;;;;5042465;28;20200;-77
2022/07/13 13:27:42;;;;;;;2.05;0.50;;;;;;;;;;5063459;28;20184;-77
2022/07/13 13:30:46;;;;;;;0.70;0.50;;;;;;;;;;5061622;28;20215;-77
2022/07/13 13:33:50;;;;;;;2.83;0.45;;;;;;;;;;5047630;28;20188;-77
2022/07/13 13:36:54;;;;;;;3.92;0.63;;;;;;;;;;5049740;28;20215;-77
2022/07/13 13:39:59;;;;;;;2.20;0.40;;;;;;;;;;5063358;28;20199;-77
2022/07/13 13:43:03;;;;;;;2.10;0.68;;;;;;;;;;5062479;28;20631;-76
2022/07/13 13:46:07;;;;;;;1.45;0.45;;;;;;;;;;5062288;28;20642;-75
2022/07/13 13:49:11;;;;;;;0.75;0.50;;;;;;;;;;5054249;28;20180;-77
2022/07/13 13:52:17;;;;;;;2.65;0.60;;;;;;;;;;5077331;22;20232;-77
2022/07/13 13:55:21;;;;;;;0.40;0.40;;;;;;;;;;5072891;28;20187;-77
2022/07/13 13:58:25;;;;;;;0.50;0.50;;;;;;;;;;5041319;28;20198;-77
2022/07/13 14:01:29;;;;;;;0.50;0.50;;;;;;;;;;5070111;28;20227;-77
2022/07/13 14:04:33;;;;;;;0.50;0.50;;;;;;;;;;5049880;28;20535;-77
2022/07/13 14:07:37;;;;;;;1.10;0.40;;;;;;;;;;5060875;28;20184;-77
2022/07/13 14:10:42;;;;;;;0.50;0.50;;;;;;;;;;5061085;28;20222;-77
2022/07/13 14:13:47;;;;;;;0.80;0.50;;;;;;;;;;5073904;28;20278;-77
2022/07/13 14:16:52;;;;;;;0.30;0.30;;;;;;;;;;5072883;28;20211;-77
2022/07/13 14:19:56;;;;;;;2.42;0.70;;;;;;;;;;5073100;28;20187;-77
2022/07/13 14:23:00;;;;;;;0.40;0.40;;;;;;;;;;5072956;28;20192;-77
2022/07/13 14:26:04;;;;;;;1.52;0.52;;;;;;;;;;5041314;28;20176;-77
2022/07/13 14:29:09;;;;;;;0.98;0.60;;;;;;;;;;5057607;28;20544;-77
2022/07/13 14:32:13;;;;;;;2.30;0.50;;;;;;;;;;5073159;28;20211;-77
2022/07/13 14:35:17;;;;;;;2.60;0.73;;;;;;;;;;5029533;28;20176;-76
2022/07/13 14:38:21;;;;;;;2.55;0.57;;;;;;;;;;5053511;28;20173;-77
2022/07/13 14:41:25;;;;;;;1.40;0.50;;;;;;;;;;5070609;28;20219;-77
2022/07/13 14:44:29;;;;;;;1.13;0.63;;;;;;;;;;5072636;28;20514;-77
2022/07/13 14:47:33;;;;;;;0.95;0.50;;;;;;;;;;5072432;28;20196;-77
2022/07/13 14:50:37;;;;;;;2.05;0.68;;;;;;;;;;5070213;28;20551;-77
2022/07/13 14:53:41;;;;;;;0.60;0.50;;;;;;;;;;5072425;28;20180;-77
2022/07/13 14:56:45;;;;;;;2.15;0.50;;;;;;;;;;5065117;28;20204;-77
2022/07/13 14:59:50;;;;;;;3.15;0.70;;;;;;;;;;5053184;28;20168;-77
2022/07/13 15:02:55;;;;;;;0.52;0.52;;;;;;;;;;5040745;28;20180;-77
2022/07/13 15:05:59;;;;;;;2.17;0.85;;;;;;;;;;5068078;28;20187;-77
2022/07/13 15:09:03;;;;;;;2.72;0.40;;;;;;;;;;5070523;28;20179;-77
2022/07/13 15:12:07;;;;;;;1.20;0.70;;;;;;;;;;5072648;28;20220;-77
2022/07/13 15:15:12;;;;;;;0.98;0.52;;;;;;;;;;5072501;28;20191;-77
2022/07/13 15:18:16;;;;;;;3.05;0.63;;;;;;;;;;5053665;28;20208;-77
2022/07/13 15:21:20;;;;;;;1.75;0.47;;;;;;;;;;5043411;28;20215;-77
2022/07/13 15:24:24;;;;;;;0.65;0.50;;;;;;;;;;5073147;28;20180;-77
2022/07/13 15:27:28;;;;;;;0.63;0.47;;;;;;;;;;5048565;28;20184;-77
2022/07/13 15:30:35;;;;;;;1.23;0.60;;;;;;;;;;5071930;28;20184;-78
2022/07/13 15:33:39;;;;;;;2.00;0.60;;;;;;;;;;5060729;28;20172;-78
2022/07/13 15:36:43;;;;;;;1.08;0.50;;;;;;;;;;5067381;28;20200;-77
2022/07/13 15:39:48;;;;;;;2.67;0.65;;;;;;;;;;5048736;28;20196;-77
2022/07/13 15:42:51;;;;;;;3.15;0.68;;;;;;;;;;5031319;28;20184;-77
2022/07/13 15:45:56;;;;;;;0.82;0.45;;;;;;;;;;5059719;28;20657;-77
2022/07/13 15:49:02;;;;;;;1.10;0.68;;;;;;;;;;5042865;28;20184;-77
2022/07/13 15:52:07;;;;;;;1.80;0.57;;;;;;;;;;5072370;28;20227;-77
2022/07/13 15:55:11;;;;;;;0.50;0.40;;;;;;;;;;5048095;28;20192;-77
2022/07/13 15:58:15;;;;;;;0.85;0.63;;;;;;;;;;5061325;28;20215;-77
2022/07/13 16:01:19;;;;;;;4.03;0.63;;;;;;;;;;5062831;28;20223;-77
2022/07/13 16:04:23;;;;;;;1.45;0.52;;;;;;;;;;5076567;28;20171;-76
2022/07/13 16:07:27;;;;;;;3.30;0.60;;;;;;;;;;5062430;28;20199;-76
2022/07/13 16:10:32;;;;;;;1.77;0.70;;;;;;;;;;5075503;28;20541;-76
2022/07/13 16:13:36;;;;;;;3.40;0.50;;;;;;;;;;5061935;28;20188;-76
2022/07/13 16:16:40;;;;;;;2.70;0.52;;;;;;;;;;5067130;28;20212;-77
2022/07/13 16:19:44;;;;;;;3.00;0.80;;;;;;;;;;5021174;28;20176;-77
2022/07/13 16:22:48;;;;;;;1.67;0.60;;;;;;;;;;5063310;28;20180;-76
2022/07/13 16:25:52;;;;;;;2.13;0.45;;;;;;;;;;5063357;28;20542;-77
2022/07/13 16:28:56;;;;;;;1.45;0.85;;;;;;;;;;5063727;28;20176;-77
2022/07/13 16:32:01;;;;;;;0.40;0.40;;;;;;;;;;5075252;28;20215;-77
2022/07/13 16:35:06;;;;;;;1.80;0.65;;;;;;;;;;5040456;28;20183;-76
2022/07/13 16:38:09;;;;;;;1.20;0.70;;;;;;;;;;5063254;28;20207;-76
2022/07/13 16:41:14;;;;;;;3.03;0.60;;;;;;;;;;5074988;28;20212;-76
2022/07/13 16:44:18;;;;;;;1.98;0.70;;;;;;;;;;5075119;28;20646;-76
2022/07/13 16:47:22;;;;;;;0.70;0.57;;;;;;;;;;5074863;28;20184;-76
2022/07/13 16:50:27;;;;;;;3.50;0.60;;;;;;;;;;5062396;28;20524;-76
2022/07/13 16:53:31;;;;;;;4.18;0.70;;;;;;;;;;5062473;28;20207;-77
2022/07/13 16:56:35;;;;;;;2.00;0.70;;;;;;;;;;5073613;28;20207;-76
2022/07/13 16:59:40;;;;;;;2.95;1.02;;;;;;;;;;5055646;28;20196;-77
2022/07/13 17:02:44;;;;;;;14.18;1.30;;;;;;;;;;5074432;28;20697;-77
2022/07/13 17:05:48;;;;;;;2.90;0.50;;;;;;;;;;5074567;28;20531;-77
2022/07/13 17:08:52;;;;;;;7.70;0.77;;;;;;;;;;5056639;28;20202;-77
2022/07/13 17:11:59;;;;;;;0.65;0.47;;;;;;;;;;5056515;28;20223;-77
2022/07/13 17:15:04;;;;;;;1.48;0.60;;;;;;;;;;5061742;28;20262;-77
2022/07/13 17:18:08;;;;;;;1.65;0.40;;;;;;;;;;5062264;28;20542;-76
2022/07/13 17:21:13;;;;;;;2.00;0.60;;;;;;;;;;5074217;28;20218;-77
2022/07/13 17:24:17;;;;;;;0.68;0.60;;;;;;;;;;5062193;28;20184;-76
2022/07/13 17:27:22;;;;;;;1.67;0.70;;;;;;;;;;5054755;28;20511;-76
2022/07/13 17:30:26;;;;;;;5.38;0.93;;;;;;;;;;5048141;28;20188;-77
2022/07/13 17:33:30;;;;;;;3.20;0.85;;;;;;;;;;5073725;28;20628;-76
2022/07/13 17:36:34;;;;;;;1.35;0.65;;;;;;;;;;5064930;28;20191;-77
2022/07/13 17:39:38;;;;;;;2.78;0.60;;;;;;;;;;5074034;28;20179;-76
2022/07/13 17:42:43;;;;;;;3.00;0.70;;;;;;;;;;5061235;28;20222;-76
2022/07/13 17:45:48;;;;;;;1.20;0.50;;;;;;;;;;5050092;28;20202;-77
2022/07/13 17:48:52;;;;;;;3.70;0.80;;;;;;;;;;5074047;28;20182;-77
2022/07/13 17:51:57;;;;;;;3.75;0.68;;;;;;;;;;5073377;28;20589;-76
2022/07/13 17:55:01;;;;;;;9.75;1.27;;;;;;;;;;5073976;28;20181;-76
2022/07/13 17:58:05;;;;;;;4.63;0.90;;;;;;;;;;5073231;28;20207;-76
2022/07/13 18:01:09;;;;;;;7.18;0.88;;;;;;;;;;5050349;28;20699;-76
2022/07/13 18:04:13;;;;;;;2.60;0.60;;;;;;;;;;5073843;28;20627;-76
2022/07/13 18:07:17;;;;;;;2.42;0.80;;;;;;;;;;5054040;28;20183;-77
2022/07/13 18:10:21;;;;;;;1.92;0.50;;;;;;;;;;5048269;28;20185;-76
2022/07/13 18:13:26;;;;;;;6.95;0.82;;;;;;;;;;5049979;28;20200;-76
2022/07/13 18:16:33;;;;;;;0.70;0.50;;;;;;;;;;5073289;28;20201;-77
2022/07/13 18:19:37;;;;;;;1.90;0.73;;;;;;;;;;5072579;28;20191;-77
2022/07/13 18:22:42;;;;;;;3.35;0.80;;;;;;;;;;5073138;28;20561;-76
2022/07/13 18:25:46;;;;;;;3.90;0.80;;;;;;;;;;5060839;28;20192;-76
2022/07/13 18:28:51;;;;;;;2.33;0.80;;;;;;;;;;5060982;28;20177;-77
2022/07/13 18:31:55;;;;;;;2.70;0.60;;;;;;;;;;5072531;28;20217;-76
2022/07/13 18:34:59;;;;;;;2.05;0.70;;;;;;;;;;5052979;28;20186;-76
2022/07/13 18:38:06;;;;;;;0.77;0.63;;;;;;;;;;5073203;28;20218;-76
2022/07/13 18:41:09;;;;;;;1.10;0.80;;;;;;;;;;5054325;28;20219;-77
2022/07/13 18:44:13;;;;;;;3.40;0.80;;;;;;;;;;5073524;28;20177;-76
2022/07/13 18:47:18;;;;;;;3.95;0.60;;;;;;;;;;5060975;28;20177;-77